首页
METAR-TAF:

METAR-TAF

机场 :

贝济耶, 法国

纬度: 43-19N, 经度: 003-21E, 海拔: 17米

当前天气观测

该预报发布于26分钟前的10:00 UTC
风速3节,风向多变
温度 13°C
湿度 77%
气压 1018 hPa
能见度10公里或以上
1500米以下无云,无积雨云

METAR: LFMU 051000Z AUTO VRB03KT CAVOK 13/09 Q1018 NOSIG

时间: 11:26 (10:26 UTC)

预报

该预报发布于2小时和26分钟前的08:00 UTC
预报有效从05日的 09点(UTC)到 06日的 09点(UTC)
风速4节,风向多变
能见度10公里或以上
1500米以下无云,无积雨云
成为
从 05日的 12点(UTC)到 05日的 14点(UTC)
风速10节,风向南转西南
成为
从 05日的 19点(UTC)到 05日的 22点(UTC)
风速10节,风向北转东北
多云层高于3000英尺
成为
从 06日的 00点(UTC)到 06日的 02点(UTC)
风速4节,风向多变

TAF: LFMU 050800Z 0509/0609 VRB04KT CAVOK BECMG 0512/0514 20010KT BECMG 0519/0522 03010KT BKN030 BECMG 0600/0602 VRB04KT

超过4000个机场的气象观测和天气预报(METAR&TAF报告)。

可查询的气象台以黄色和红色小点在地图上表示。

将鼠标移到小点上方,可查看气象台名称。

然后点击查看天气观测和预报。

如需切换地图:点击带黑十字的绿色按钮放大地图;点击带横线的绿色按钮缩小地图;或者点击绿色箭头查看邻近地区的地图。


METAR-TAF: